createdAt,value
2023-08-11T00:00:32.545Z,1025.05
2023-08-11T00:01:32.571Z,1025.04
2023-08-11T00:02:32.542Z,1025.08
2023-08-11T00:03:32.566Z,1025.05
2023-08-11T00:04:32.527Z,1025.07
2023-08-11T00:05:32.538Z,1025.04
2023-08-11T00:06:32.521Z,1025.04
2023-08-11T00:07:32.519Z,1025.04
2023-08-11T00:08:32.521Z,1025.06
2023-08-11T00:09:32.526Z,1025.02
2023-08-11T00:10:32.528Z,1025
2023-08-11T00:11:32.524Z,1024.99
2023-08-11T00:12:32.518Z,1024.99
2023-08-11T00:13:32.526Z,1025.02
2023-08-11T00:14:32.533Z,1025.01
2023-08-11T00:15:32.534Z,1025.04
2023-08-11T00:16:32.514Z,1025.02
2023-08-11T00:17:32.550Z,1025.01
2023-08-11T00:18:32.526Z,1025
2023-08-11T00:19:32.555Z,1025.01
2023-08-11T00:20:32.535Z,1024.94
2023-08-11T00:21:32.531Z,1024.98
2023-08-11T00:22:32.538Z,1024.98
2023-08-11T00:23:32.521Z,1025
2023-08-11T00:24:32.537Z,1024.97
2023-08-11T00:25:32.541Z,1025.03
2023-08-11T00:26:32.536Z,1024.99
2023-08-11T00:27:32.510Z,1025.02
2023-08-11T00:28:32.510Z,1024.99
2023-08-11T00:29:32.508Z,1025.02
2023-08-11T00:30:32.541Z,1025
2023-08-11T00:31:32.551Z,1025.03
2023-08-11T00:32:32.625Z,1025.05
2023-08-11T00:33:32.537Z,1025.07
2023-08-11T00:34:32.531Z,1025.06
2023-08-11T00:35:32.517Z,1025.04
2023-08-11T00:36:32.512Z,1025.04
2023-08-11T00:37:32.509Z,1025.06
2023-08-11T00:38:32.512Z,1025.06
2023-08-11T00:39:32.517Z,1025.05
2023-08-11T00:40:32.543Z,1025.03
2023-08-11T00:41:32.516Z,1025.05
2023-08-11T00:42:32.494Z,1025.06
2023-08-11T00:43:32.508Z,1025.03
2023-08-11T00:44:32.507Z,1025.03
2023-08-11T00:45:32.534Z,1025
2023-08-11T00:46:32.777Z,1025.05
2023-08-11T00:47:32.531Z,1025.06
2023-08-11T00:48:32.502Z,1025.08
2023-08-11T00:49:32.506Z,1025.07
2023-08-11T00:50:32.515Z,1025.07
2023-08-11T00:51:32.501Z,1025.07
2023-08-11T00:52:32.511Z,1025.07
2023-08-11T00:53:32.505Z,1025.09
2023-08-11T00:54:32.554Z,1025.09
2023-08-11T00:55:32.523Z,1025.1
2023-08-11T00:56:32.508Z,1025.1
2023-08-11T00:57:32.533Z,1025.04
2023-08-11T00:58:32.508Z,1025.07
2023-08-11T00:59:32.505Z,1025.09
2023-08-11T01:00:32.579Z,1025.06
2023-08-11T01:01:32.514Z,1025.12
2023-08-11T01:02:32.599Z,1025.06
2023-08-11T01:03:32.558Z,1025.08
2023-08-11T01:04:32.520Z,1025.05
2023-08-11T01:05:32.546Z,1025.06
2023-08-11T01:06:32.533Z,1025.07
2023-08-11T01:07:32.518Z,1025.07
2023-08-11T01:08:32.518Z,1025.1
2023-08-11T01:09:32.535Z,1025.09
2023-08-11T01:10:32.541Z,1025.08
2023-08-11T01:11:32.530Z,1025.1
2023-08-11T01:12:32.528Z,1025.08
2023-08-11T01:13:32.511Z,1025.11
2023-08-11T01:14:32.524Z,1025.1
2023-08-11T01:15:32.561Z,1025.08
2023-08-11T01:16:32.583Z,1025.08
2023-08-11T01:17:32.533Z,1025.11
2023-08-11T01:18:32.527Z,1025.1
2023-08-11T01:19:32.511Z,1025.07
2023-08-11T01:20:32.558Z,1025.08
2023-08-11T01:21:32.523Z,1025.05
2023-08-11T01:22:32.539Z,1025.03
2023-08-11T01:23:32.529Z,1025.08
2023-08-11T01:24:32.524Z,1025.06
2023-08-11T01:25:32.536Z,1025.04
2023-08-11T01:26:32.534Z,1025.01
2023-08-11T01:27:32.519Z,1024.99
2023-08-11T01:28:32.523Z,1025.03
2023-08-11T01:29:32.525Z,1024.99
2023-08-11T01:30:32.534Z,1025
2023-08-11T01:31:32.525Z,1025
2023-08-11T01:32:32.539Z,1024.93
2023-08-11T01:33:32.552Z,1024.98
2023-08-11T01:34:32.529Z,1024.93
2023-08-11T01:35:40.427Z,1024.97
2023-08-11T01:36:32.533Z,1024.94
2023-08-11T01:37:32.597Z,1024.98
2023-08-11T01:38:32.529Z,1024.93
2023-08-11T01:39:32.536Z,1024.92
2023-08-11T01:40:32.522Z,1024.96
2023-08-11T01:41:32.516Z,1024.93
2023-08-11T01:42:37.559Z,1024.96
2023-08-11T01:43:32.533Z,1024.99
2023-08-11T01:44:32.515Z,1024.99
2023-08-11T01:45:32.530Z,1024.96
2023-08-11T01:46:32.550Z,1024.97
2023-08-11T01:47:32.558Z,1024.94
2023-08-11T01:48:32.644Z,1024.96
2023-08-11T01:49:32.525Z,1024.98
2023-08-11T01:50:32.583Z,1024.96
2023-08-11T01:51:32.524Z,1025
2023-08-11T01:52:32.529Z,1025
2023-08-11T01:53:32.521Z,1024.96
2023-08-11T01:54:32.540Z,1025.01
2023-08-11T01:55:32.536Z,1025
2023-08-11T01:56:32.541Z,1025.01
2023-08-11T01:57:33.566Z,1025
2023-08-11T01:58:32.524Z,1024.96
2023-08-11T01:59:32.504Z,1025.02
2023-08-11T02:00:32.526Z,1025.02
2023-08-11T02:01:32.539Z,1025.05
2023-08-11T02:02:32.586Z,1025.01
2023-08-11T02:03:32.620Z,1025.05
2023-08-11T02:04:32.532Z,1025
2023-08-11T02:05:32.564Z,1025.05
2023-08-11T02:06:32.515Z,1025.04
2023-08-11T02:07:32.531Z,1025.07
2023-08-11T02:08:32.532Z,1025.04
2023-08-11T02:09:32.537Z,1025.08
2023-08-11T02:10:32.540Z,1025.09
2023-08-11T02:11:32.523Z,1025.04
2023-08-11T02:12:32.523Z,1025.01
2023-08-11T02:13:32.518Z,1024.99
2023-08-11T02:14:32.528Z,1024.99
2023-08-11T02:15:32.546Z,1025.02
2023-08-11T02:16:32.527Z,1025.01
2023-08-11T02:17:32.517Z,1025.03
2023-08-11T02:18:32.525Z,1024.98
2023-08-11T02:19:32.526Z,1025.04
2023-08-11T02:20:32.534Z,1025.04
2023-08-11T02:21:32.527Z,1025.02
2023-08-11T02:22:32.519Z,1025.07
2023-08-11T02:23:32.520Z,1025.03
2023-08-11T02:24:32.527Z,1025.04
2023-08-11T02:25:32.557Z,1025.05
2023-08-11T02:26:32.542Z,1025.02
2023-08-11T02:27:32.513Z,1025.04
2023-08-11T02:28:32.523Z,1025.07
2023-08-11T02:29:32.515Z,1025.04
2023-08-11T02:30:32.526Z,1025.07
2023-08-11T02:31:32.534Z,1025.07
2023-08-11T02:32:32.554Z,1025.11
2023-08-11T02:33:32.525Z,1025.16
2023-08-11T02:34:32.514Z,1025.11
2023-08-11T02:35:32.538Z,1025.1
2023-08-11T02:36:32.513Z,1025.11
2023-08-11T02:37:32.513Z,1025.11
2023-08-11T02:38:32.515Z,1025.13
2023-08-11T02:39:32.520Z,1025.13
2023-08-11T02:40:32.533Z,1025.14
2023-08-11T02:41:32.527Z,1025.13
2023-08-11T02:42:32.518Z,1025.14
2023-08-11T02:43:32.512Z,1025.15
2023-08-11T02:44:32.508Z,1025.2
2023-08-11T02:45:32.574Z,1025.17
2023-08-11T02:46:32.515Z,1025.16
2023-08-11T02:47:32.521Z,1025.19
2023-08-11T02:48:32.525Z,1025.21
2023-08-11T02:49:32.514Z,1025.2
2023-08-11T02:50:32.587Z,1025.17
2023-08-11T02:51:32.532Z,1025.17
2023-08-11T02:52:32.518Z,1025.2
2023-08-11T02:53:32.557Z,1025.22
2023-08-11T02:54:32.519Z,1025.21
2023-08-11T02:55:32.522Z,1025.2
2023-08-11T02:56:32.512Z,1025.19
2023-08-11T02:57:32.495Z,1025.2
2023-08-11T02:58:32.511Z,1025.24
2023-08-11T02:59:32.517Z,1025.25
2023-08-11T03:00:32.508Z,1025.24
2023-08-11T03:01:32.537Z,1025.23
2023-08-11T03:02:32.536Z,1025.21
2023-08-11T03:03:32.645Z,1025.22
2023-08-11T03:04:32.503Z,1025.22
2023-08-11T03:05:32.517Z,1025.22
2023-08-11T03:06:32.503Z,1025.25
2023-08-11T03:07:32.524Z,1025.24
2023-08-11T03:08:32.535Z,1025.27
2023-08-11T03:09:32.512Z,1025.27
2023-08-11T03:10:39.917Z,1025.27
2023-08-11T03:11:32.519Z,1025.28
2023-08-11T03:12:32.507Z,1025.27
2023-08-11T03:13:32.495Z,1025.27
2023-08-11T03:14:32.530Z,1025.25
2023-08-11T03:15:32.551Z,1025.24
2023-08-11T03:16:32.512Z,1025.23
2023-08-11T03:17:32.547Z,1025.24
2023-08-11T03:18:32.506Z,1025.25
2023-08-11T03:19:32.519Z,1025.26
2023-08-11T03:20:32.531Z,1025.29
2023-08-11T03:21:32.511Z,1025.28
2023-08-11T03:22:32.517Z,1025.27
2023-08-11T03:23:32.499Z,1025.27
2023-08-11T03:24:32.516Z,1025.27
2023-08-11T03:25:32.530Z,1025.29
2023-08-11T03:26:32.522Z,1025.31
2023-08-11T03:27:32.524Z,1025.31
2023-08-11T03:28:32.535Z,1025.31
2023-08-11T03:29:32.509Z,1025.31
2023-08-11T03:30:32.515Z,1025.33
2023-08-11T03:31:32.512Z,1025.35
2023-08-11T03:32:32.596Z,1025.31
2023-08-11T03:33:32.564Z,1025.34
2023-08-11T03:34:32.509Z,1025.35
2023-08-11T03:35:32.530Z,1025.34
2023-08-11T03:36:32.511Z,1025.34
2023-08-11T03:37:32.503Z,1025.35
2023-08-11T03:38:32.513Z,1025.36
2023-08-11T03:39:32.522Z,1025.34
2023-08-11T03:40:32.511Z,1025.36
2023-08-11T03:41:32.506Z,1025.37
2023-08-11T03:42:32.510Z,1025.4
2023-08-11T03:43:32.517Z,1025.4
2023-08-11T03:44:32.507Z,1025.47
2023-08-11T03:45:32.525Z,1025.4
2023-08-11T03:46:32.541Z,1025.46
2023-08-11T03:47:32.544Z,1025.42
2023-08-11T03:48:32.521Z,1025.44
2023-08-11T03:49:32.516Z,1025.44
2023-08-11T03:50:32.526Z,1025.49
2023-08-11T03:51:32.588Z,1025.51
2023-08-11T03:52:32.515Z,1025.52
2023-08-11T03:53:32.515Z,1025.52
2023-08-11T03:54:44.405Z,1025.53
2023-08-11T03:55:32.533Z,1025.53
2023-08-11T03:56:32.512Z,1025.53
2023-08-11T03:57:32.529Z,1025.57
2023-08-11T03:58:32.536Z,1025.56
2023-08-11T03:59:32.505Z,1025.56
2023-08-11T04:00:32.522Z,1025.55
2023-08-11T04:01:32.578Z,1025.58
2023-08-11T04:02:32.523Z,1025.58
2023-08-11T04:03:32.703Z,1025.55
2023-08-11T04:04:32.507Z,1025.59
2023-08-11T04:05:32.535Z,1025.59
2023-08-11T04:06:32.511Z,1025.53
2023-08-11T04:07:32.514Z,1025.5
2023-08-11T04:08:32.505Z,1025.55
2023-08-11T04:09:32.517Z,1025.53
2023-08-11T04:10:32.523Z,1025.53
2023-08-11T04:11:32.502Z,1025.55
2023-08-11T04:12:32.524Z,1025.57
2023-08-11T04:13:32.507Z,1025.59
2023-08-11T04:14:32.521Z,1025.61
2023-08-11T04:15:32.528Z,1025.57
2023-08-11T04:16:32.538Z,1025.58
2023-08-11T04:17:32.512Z,1025.55
2023-08-11T04:18:32.526Z,1025.58
2023-08-11T04:19:32.524Z,1025.55
2023-08-11T04:20:32.519Z,1025.59
2023-08-11T04:21:32.534Z,1025.62
2023-08-11T04:22:38.730Z,1025.59
2023-08-11T04:23:32.510Z,1025.62
2023-08-11T04:24:32.526Z,1025.66
2023-08-11T04:25:32.546Z,1025.74
2023-08-11T04:26:32.522Z,1025.74
2023-08-11T04:27:32.504Z,1025.72
2023-08-11T04:28:32.511Z,1025.76
2023-08-11T04:29:32.517Z,1025.68
2023-08-11T04:30:32.516Z,1025.7
2023-08-11T04:31:32.537Z,1025.69
2023-08-11T04:32:32.558Z,1025.67
2023-08-11T04:33:32.522Z,1025.71
2023-08-11T04:34:32.498Z,1025.73
2023-08-11T04:35:32.523Z,1025.76
2023-08-11T04:36:32.505Z,1025.77
2023-08-11T04:37:32.511Z,1025.77
2023-08-11T04:38:32.505Z,1025.77
2023-08-11T04:39:32.511Z,1025.77
2023-08-11T04:40:32.517Z,1025.8
2023-08-11T04:41:32.513Z,1025.78
2023-08-11T04:42:32.510Z,1025.81
2023-08-11T04:43:32.499Z,1025.81
2023-08-11T04:44:32.511Z,1025.8
2023-08-11T04:45:32.530Z,1025.81
2023-08-11T04:46:32.553Z,1025.79
2023-08-11T04:47:32.537Z,1025.78
2023-08-11T04:48:32.516Z,1025.81
2023-08-11T04:49:32.503Z,1025.74
2023-08-11T04:50:32.503Z,1025.78
2023-08-11T04:51:32.504Z,1025.75
2023-08-11T04:52:32.524Z,1025.77
2023-08-11T04:53:32.550Z,1025.78
2023-08-11T04:54:32.513Z,1025.77
2023-08-11T04:55:32.605Z,1025.8
2023-08-11T04:56:32.523Z,1025.81
2023-08-11T04:57:32.508Z,1025.79
2023-08-11T04:58:32.524Z,1025.84
2023-08-11T04:59:32.505Z,1025.81
2023-08-11T05:00:32.525Z,1025.77
2023-08-11T05:01:32.574Z,1025.79
2023-08-11T05:02:32.557Z,1025.79
2023-08-11T05:03:32.607Z,1025.81
2023-08-11T05:04:32.523Z,1025.79
2023-08-11T05:05:32.532Z,1025.79
2023-08-11T05:06:32.518Z,1025.82
2023-08-11T05:07:32.528Z,1025.8
2023-08-11T05:08:32.514Z,1025.8
2023-08-11T05:09:32.534Z,1025.8
2023-08-11T05:10:32.535Z,1025.83
2023-08-11T05:11:32.536Z,1025.84
2023-08-11T05:12:32.537Z,1025.84
2023-08-11T05:13:32.523Z,1025.89
2023-08-11T05:14:32.529Z,1025.86
2023-08-11T05:15:32.546Z,1025.89
2023-08-11T05:16:32.550Z,1025.86
2023-08-11T05:17:32.649Z,1025.92
2023-08-11T05:18:42.922Z,1025.87
2023-08-11T05:19:32.601Z,1025.83
2023-08-11T05:20:32.544Z,1025.84
2023-08-11T05:21:32.523Z,1025.85
2023-08-11T05:22:32.542Z,1025.87
2023-08-11T05:23:32.531Z,1025.87
2023-08-11T05:24:32.537Z,1025.91
2023-08-11T05:25:32.547Z,1025.85
2023-08-11T05:26:32.527Z,1025.89
2023-08-11T05:27:32.546Z,1025.89
2023-08-11T05:28:32.535Z,1025.86
2023-08-11T05:29:32.532Z,1025.85
2023-08-11T05:30:32.541Z,1025.84
2023-08-11T05:31:32.591Z,1025.87
2023-08-11T05:32:32.585Z,1025.84
2023-08-11T05:33:32.552Z,1025.84
2023-08-11T05:34:32.548Z,1025.84
2023-08-11T05:35:32.554Z,1025.84
2023-08-11T05:36:32.537Z,1025.89
2023-08-11T05:37:32.526Z,1025.9
2023-08-11T05:38:32.527Z,1025.9
2023-08-11T05:39:32.551Z,1025.92
2023-08-11T05:40:32.538Z,1025.92
2023-08-11T05:41:32.533Z,1025.94
2023-08-11T05:42:32.543Z,1025.93
2023-08-11T05:43:32.553Z,1025.97
2023-08-11T05:44:32.542Z,1025.95
2023-08-11T05:45:32.557Z,1025.95
2023-08-11T05:46:32.549Z,1025.95
2023-08-11T05:47:32.591Z,1025.95
2023-08-11T05:48:32.533Z,1025.95
2023-08-11T05:49:32.546Z,1025.99
2023-08-11T05:50:32.549Z,1025.96
2023-08-11T05:51:32.542Z,1025.96
2023-08-11T05:52:32.538Z,1025.97
2023-08-11T05:53:32.538Z,1025.9
2023-08-11T05:54:32.552Z,1025.98
2023-08-11T05:55:32.612Z,1025.95
2023-08-11T05:56:32.563Z,1025.93
2023-08-11T05:57:32.542Z,1025.92
2023-08-11T05:58:32.550Z,1025.94
2023-08-11T05:59:32.548Z,1025.97
2023-08-11T06:00:32.573Z,1025.96
2023-08-11T06:01:32.650Z,1025.98
2023-08-11T06:02:32.569Z,1026.01
2023-08-11T06:03:32.706Z,1026.01
2023-08-11T06:04:32.544Z,1026.01
2023-08-11T06:05:32.542Z,1026.01
2023-08-11T06:06:32.556Z,1026.05
2023-08-11T06:07:32.542Z,1026.03
2023-08-11T06:08:32.516Z,1026.06
2023-08-11T06:09:32.519Z,1026.06
2023-08-11T06:10:32.525Z,1026.06
2023-08-11T06:11:32.534Z,1026.04
2023-08-11T06:12:32.515Z,1026.06
2023-08-11T06:13:32.521Z,1026.06
2023-08-11T06:14:32.511Z,1026.08
2023-08-11T06:15:32.513Z,1026.07
2023-08-11T06:16:32.531Z,1026.07
2023-08-11T06:17:32.544Z,1026.06
2023-08-11T06:18:32.505Z,1026.05
2023-08-11T06:19:32.515Z,1026.06
2023-08-11T06:20:40.981Z,1026.08
2023-08-11T06:21:32.500Z,1026.09
2023-08-11T06:22:32.508Z,1026.05
2023-08-11T06:23:32.506Z,1026.08
2023-08-11T06:24:32.509Z,1026.09
2023-08-11T06:25:32.588Z,1026.05
2023-08-11T06:26:32.500Z,1026.05
2023-08-11T06:27:32.512Z,1026.12
2023-08-11T06:28:32.497Z,1026.07
2023-08-11T06:29:32.518Z,1026.1
2023-08-11T06:30:32.538Z,1026.09
2023-08-11T06:31:32.555Z,1026.1
2023-08-11T06:32:32.536Z,1026.13
2023-08-11T06:33:32.492Z,1026.1
2023-08-11T06:34:32.509Z,1026.17
2023-08-11T06:35:32.567Z,1026.14
2023-08-11T06:36:32.491Z,1026.13
2023-08-11T06:37:32.496Z,1026.15
2023-08-11T06:38:32.519Z,1026.16
2023-08-11T06:39:32.525Z,1026.19
2023-08-11T06:40:32.526Z,1026.22
2023-08-11T06:41:32.530Z,1026.16
2023-08-11T06:42:32.516Z,1026.17
2023-08-11T06:43:32.528Z,1026.2
2023-08-11T06:44:32.525Z,1026.22
2023-08-11T06:45:32.587Z,1026.22
2023-08-11T06:46:32.521Z,1026.24
2023-08-11T06:47:32.568Z,1026.27
2023-08-11T06:48:32.515Z,1026.29
2023-08-11T06:49:32.534Z,1026.29
2023-08-11T06:50:32.532Z,1026.25
2023-08-11T06:51:32.553Z,1026.27
2023-08-11T06:52:32.531Z,1026.28
2023-08-11T06:53:32.530Z,1026.23
2023-08-11T06:54:32.519Z,1026.23
2023-08-11T06:55:32.536Z,1026.25
2023-08-11T06:56:32.562Z,1026.27
2023-08-11T06:57:32.623Z,1026.26
2023-08-11T06:58:32.535Z,1026.26
2023-08-11T06:59:32.527Z,1026.28
2023-08-11T07:00:32.533Z,1026.23
2023-08-11T07:01:32.584Z,1026.31
2023-08-11T07:02:32.541Z,1026.3
2023-08-11T07:03:32.567Z,1026.37
2023-08-11T07:04:32.525Z,1026.32
2023-08-11T07:09:32.523Z,1026.33
2023-08-11T07:10:32.528Z,1026.37
2023-08-11T07:11:32.519Z,1026.36
2023-08-11T07:12:32.553Z,1026.38
2023-08-11T07:13:32.526Z,1026.35
2023-08-11T07:14:32.520Z,1026.36
2023-08-11T07:15:32.515Z,1026.32
2023-08-11T07:16:32.521Z,1026.38
2023-08-11T07:17:32.556Z,1026.43
2023-08-11T07:18:32.516Z,1026.42
2023-08-11T07:19:32.509Z,1026.43
2023-08-11T07:20:32.508Z,1026.48
2023-08-11T07:21:32.534Z,1026.47
2023-08-11T07:22:32.523Z,1026.44
2023-08-11T07:23:32.516Z,1026.43
2023-08-11T07:24:32.518Z,1026.41
2023-08-11T07:25:32.523Z,1026.4
2023-08-11T07:26:32.512Z,1026.4
2023-08-11T07:27:32.519Z,1026.39
2023-08-11T07:28:32.498Z,1026.42
2023-08-11T07:29:32.513Z,1026.46
2023-08-11T07:30:32.516Z,1026.44
2023-08-11T07:31:32.540Z,1026.45
2023-08-11T07:32:32.588Z,1026.39
2023-08-11T07:33:32.502Z,1026.42
2023-08-11T07:34:32.517Z,1026.39
2023-08-11T07:35:32.513Z,1026.39
2023-08-11T07:36:32.506Z,1026.4
2023-08-11T07:37:32.528Z,1026.39
2023-08-11T07:38:32.518Z,1026.43
2023-08-11T07:39:32.509Z,1026.4
2023-08-11T07:40:32.519Z,1026.39
2023-08-11T07:41:32.519Z,1026.41
2023-08-11T07:42:32.512Z,1026.39
2023-08-11T07:43:32.525Z,1026.38
2023-08-11T07:44:32.532Z,1026.36
2023-08-11T07:45:32.510Z,1026.38
2023-08-11T07:46:32.515Z,1026.37
2023-08-11T07:47:32.619Z,1026.36
2023-08-11T07:48:32.506Z,1026.37
2023-08-11T07:49:32.649Z,1026.38
2023-08-11T07:50:32.520Z,1026.38
2023-08-11T07:51:32.500Z,1026.41
2023-08-11T07:52:32.521Z,1026.4
2023-08-11T07:53:32.511Z,1026.41
2023-08-11T07:54:32.615Z,1026.41
2023-08-11T07:55:32.536Z,1026.41
2023-08-11T07:56:32.513Z,1026.43
2023-08-11T07:57:32.533Z,1026.4
2023-08-11T07:58:32.504Z,1026.39
2023-08-11T07:59:32.571Z,1026.37
2023-08-11T08:00:32.499Z,1026.43
2023-08-11T08:01:32.536Z,1026.36
2023-08-11T08:02:32.566Z,1026.41
2023-08-11T08:03:32.658Z,1026.33
2023-08-11T08:04:32.521Z,1026.42
2023-08-11T08:05:32.502Z,1026.41
2023-08-11T08:06:32.515Z,1026.42
2023-08-11T08:07:32.526Z,1026.42
2023-08-11T08:08:32.518Z,1026.44
2023-08-11T08:09:32.520Z,1026.45
2023-08-11T08:10:32.530Z,1026.42
2023-08-11T08:11:32.523Z,1026.47
2023-08-11T08:12:32.526Z,1026.46
2023-08-11T08:13:32.537Z,1026.42
2023-08-11T08:14:32.527Z,1026.44
2023-08-11T08:15:32.517Z,1026.45
2023-08-11T08:16:32.550Z,1026.46
2023-08-11T08:17:32.593Z,1026.5
2023-08-11T08:18:32.501Z,1026.45
2023-08-11T08:19:32.524Z,1026.46
2023-08-11T08:20:32.534Z,1026.42
2023-08-11T08:21:32.517Z,1026.42
2023-08-11T08:22:32.545Z,1026.45
2023-08-11T08:23:32.556Z,1026.44
2023-08-11T08:24:32.533Z,1026.38
2023-08-11T08:25:32.541Z,1026.39
2023-08-11T08:26:32.518Z,1026.38
2023-08-11T08:27:32.537Z,1026.35
2023-08-11T08:28:34.160Z,1026.33
2023-08-11T08:29:32.515Z,1026.32
2023-08-11T08:30:32.498Z,1026.29
2023-08-11T08:31:32.523Z,1026.33
2023-08-11T08:32:32.568Z,1026.32
2023-08-11T08:33:32.539Z,1026.35
2023-08-11T08:34:32.500Z,1026.32
2023-08-11T08:35:32.500Z,1026.35
2023-08-11T08:36:32.521Z,1026.33
2023-08-11T08:37:32.531Z,1026.37
2023-08-11T08:38:32.512Z,1026.38
2023-08-11T08:39:32.514Z,1026.42
2023-08-11T08:40:32.527Z,1026.39
2023-08-11T08:41:32.517Z,1026.4
2023-08-11T08:42:32.524Z,1026.42
2023-08-11T08:43:32.510Z,1026.38
2023-08-11T08:44:32.940Z,1026.43
2023-08-11T08:45:32.521Z,1026.41
2023-08-11T08:46:32.559Z,1026.39
2023-08-11T08:47:38.065Z,1026.42
2023-08-11T08:48:36.936Z,1026.41
2023-08-11T08:49:36.946Z,1026.42
2023-08-11T08:50:36.931Z,1026.39
2023-08-11T08:51:36.939Z,1026.24
2023-08-11T08:52:36.939Z,1026.2
2023-08-11T08:53:36.953Z,1026.23
2023-08-11T08:54:36.938Z,1026.19
2023-08-11T08:55:36.951Z,1026.18
2023-08-11T08:56:36.945Z,1026.16
2023-08-11T08:57:36.956Z,1026.17
2023-08-11T08:58:36.937Z,1026.2
2023-08-11T08:59:36.941Z,1026.24
2023-08-11T09:00:36.938Z,1026.3
2023-08-11T09:01:36.965Z,1026.33
2023-08-11T09:02:37.038Z,1026.31
2023-08-11T09:03:37.104Z,1026.25
2023-08-11T09:04:37.050Z,1026.31
2023-08-11T09:05:36.939Z,1026.3
2023-08-11T09:06:36.941Z,1026.23
2023-08-11T09:07:36.951Z,1026.23
2023-08-11T09:08:36.936Z,1026.15
2023-08-11T09:09:36.945Z,1026.19
2023-08-11T09:10:36.955Z,1026.24
2023-08-11T09:11:36.946Z,1026.32
2023-08-11T09:12:37.003Z,1026.29
2023-08-11T09:13:36.938Z,1026.35
2023-08-11T09:14:36.944Z,1026.37
2023-08-11T09:15:36.940Z,1026.39
2023-08-11T09:16:37.015Z,1026.4
2023-08-11T09:17:37.026Z,1026.46
2023-08-11T09:18:36.935Z,1026.39
2023-08-11T09:19:36.940Z,1026.43
2023-08-11T09:20:36.939Z,1026.4
2023-08-11T09:21:36.939Z,1026.38
2023-08-11T09:22:36.947Z,1026.37
2023-08-11T09:23:36.945Z,1026.33
2023-08-11T09:24:36.940Z,1026.37
2023-08-11T09:25:36.939Z,1026.35
2023-08-11T09:26:36.943Z,1026.29
2023-08-11T09:27:36.975Z,1026.32
2023-08-11T09:28:36.940Z,1026.32
2023-08-11T09:29:36.933Z,1026.29
2023-08-11T09:30:36.934Z,1026.29
2023-08-11T09:31:36.967Z,1026.26
2023-08-11T09:32:36.958Z,1026.28
2023-08-11T09:33:36.951Z,1026.25
2023-08-11T09:34:36.925Z,1026.26
2023-08-11T09:35:36.937Z,1026.21
2023-08-11T09:36:36.941Z,1026.17
2023-08-11T09:37:36.950Z,1026.07
2023-08-11T09:38:36.925Z,1025.92
2023-08-11T09:39:36.941Z,1025.84
2023-08-11T09:40:36.938Z,1025.79
2023-08-11T09:41:36.932Z,1025.72
2023-08-11T09:42:36.944Z,1025.7
2023-08-11T09:43:36.962Z,1025.73
2023-08-11T09:44:36.932Z,1025.82
2023-08-11T09:45:36.961Z,1025.87
2023-08-11T09:46:36.988Z,1025.95
2023-08-11T09:47:36.964Z,1025.99
2023-08-11T09:48:36.927Z,1025.97
2023-08-11T09:49:36.916Z,1025.86
2023-08-11T09:50:36.940Z,1025.77
2023-08-11T09:51:36.936Z,1025.69
2023-08-11T09:52:36.938Z,1025.67
2023-08-11T09:53:36.913Z,1025.67
2023-08-11T09:54:36.921Z,1025.62
2023-08-11T09:55:36.947Z,1025.62
2023-08-11T09:56:36.912Z,1025.62
2023-08-11T09:57:36.926Z,1025.68
2023-08-11T09:58:36.912Z,1025.74
2023-08-11T09:59:36.920Z,1025.78
2023-08-11T10:00:36.916Z,1025.87
2023-08-11T10:01:36.971Z,1025.89
2023-08-11T10:02:37.025Z,1025.93
2023-08-11T10:03:36.988Z,1025.9
2023-08-11T10:04:36.907Z,1025.92
2023-08-11T10:05:36.914Z,1025.97
2023-08-11T10:06:36.907Z,1025.99
2023-08-11T10:07:36.931Z,1026.04
2023-08-11T10:08:36.917Z,1026.09
2023-08-11T10:09:36.920Z,1026.09
2023-08-11T10:10:36.930Z,1026.08
2023-08-11T10:11:36.915Z,1026.15
2023-08-11T10:12:36.941Z,1026.16
2023-08-11T10:13:36.925Z,1026.12
2023-08-11T10:14:36.925Z,1026.07
2023-08-11T10:15:36.952Z,1026.01
2023-08-11T10:16:36.917Z,1025.84
2023-08-11T10:17:37.010Z,1025.73
2023-08-11T10:18:36.925Z,1025.69
2023-08-11T10:19:36.912Z,1025.58
2023-08-11T10:20:36.934Z,1025.51
2023-08-11T10:21:36.929Z,1025.54
2023-08-11T10:22:36.945Z,1025.53
2023-08-11T10:23:36.959Z,1025.51
2023-08-11T10:24:36.975Z,1025.5
2023-08-11T10:25:36.936Z,1025.5
2023-08-11T10:26:36.912Z,1025.49
2023-08-11T10:27:36.934Z,1025.55
2023-08-11T10:28:36.920Z,1025.58
2023-08-11T10:29:36.927Z,1025.58
2023-08-11T10:30:36.929Z,1025.51
2023-08-11T10:31:37.082Z,1025.5
2023-08-11T10:32:37.005Z,1025.49
2023-08-11T10:33:36.923Z,1025.49
2023-08-11T10:34:36.921Z,1025.49
2023-08-11T10:35:36.919Z,1025.52
2023-08-11T10:36:36.916Z,1025.51
2023-08-11T10:37:36.948Z,1025.52
2023-08-11T10:38:36.917Z,1025.52
2023-08-11T10:39:36.927Z,1025.53
2023-08-11T10:40:36.934Z,1025.54
2023-08-11T10:41:36.908Z,1025.54
2023-08-11T10:42:36.941Z,1025.51
2023-08-11T10:43:36.909Z,1025.53
2023-08-11T10:44:36.917Z,1025.58
2023-08-11T10:45:36.905Z,1025.6
2023-08-11T10:46:36.927Z,1025.56
2023-08-11T10:47:36.967Z,1025.59
2023-08-11T10:48:36.908Z,1025.59
2023-08-11T10:49:36.901Z,1025.59
2023-08-11T10:50:36.902Z,1025.56
2023-08-11T10:51:36.912Z,1025.6
2023-08-11T10:52:36.913Z,1025.7
2023-08-11T10:53:36.914Z,1025.7
2023-08-11T10:54:36.915Z,1025.7
2023-08-11T10:55:36.928Z,1025.74
2023-08-11T10:56:36.971Z,1025.75
2023-08-11T10:57:36.919Z,1025.83
2023-08-11T10:58:36.900Z,1025.94
2023-08-11T10:59:36.911Z,1025.96
2023-08-11T11:00:36.946Z,1025.97
2023-08-11T11:01:36.912Z,1025.97
2023-08-11T11:02:36.938Z,1025.86
2023-08-11T11:03:36.905Z,1025.79
2023-08-11T11:04:36.930Z,1025.76
2023-08-11T11:05:36.913Z,1025.74
2023-08-11T11:06:36.918Z,1025.79
2023-08-11T11:07:36.919Z,1025.84
2023-08-11T11:08:36.915Z,1025.9
2023-08-11T11:09:36.922Z,1025.9
2023-08-11T11:10:48.559Z,1025.99
2023-08-11T11:11:36.900Z,1025.98
2023-08-11T11:12:36.917Z,1025.96
2023-08-11T11:13:36.906Z,1025.93
2023-08-11T11:14:36.924Z,1025.9
2023-08-11T11:15:36.919Z,1025.85
2023-08-11T11:16:36.960Z,1025.81
2023-08-11T11:17:36.935Z,1025.81
2023-08-11T11:18:36.907Z,1025.83
2023-08-11T11:19:36.921Z,1025.89
2023-08-11T11:20:36.919Z,1025.94
2023-08-11T11:21:36.912Z,1026.02
2023-08-11T11:22:36.923Z,1026.06
2023-08-11T11:23:36.900Z,1026.07
2023-08-11T11:24:36.917Z,1026.06
2023-08-11T11:25:36.945Z,1025.92
2023-08-11T11:26:36.910Z,1025.76
2023-08-11T11:27:36.915Z,1025.72
2023-08-11T11:28:36.902Z,1025.7
2023-08-11T11:29:36.910Z,1025.73
2023-08-11T11:30:36.903Z,1025.78
2023-08-11T11:31:36.912Z,1025.87
2023-08-11T11:32:36.912Z,1026.01
2023-08-11T11:33:36.967Z,1026.1
2023-08-11T11:34:36.905Z,1026.14
2023-08-11T11:35:36.912Z,1026.14
2023-08-11T11:36:36.910Z,1026.06
2023-08-11T11:37:36.969Z,1026.04
2023-08-11T11:38:36.906Z,1026
2023-08-11T11:39:36.922Z,1026.05
2023-08-11T11:40:36.931Z,1026.01
2023-08-11T11:41:36.915Z,1025.99
2023-08-11T11:42:36.936Z,1026.01
2023-08-11T11:43:36.928Z,1026.01
2023-08-11T11:44:36.913Z,1025.99
2023-08-11T11:45:36.942Z,1025.96
2023-08-11T11:46:36.940Z,1025.99
2023-08-11T11:47:36.964Z,1025.99
2023-08-11T11:48:36.925Z,1025.99
2023-08-11T11:49:36.930Z,1025.95
2023-08-11T11:50:36.933Z,1025.87
2023-08-11T11:51:36.921Z,1025.83
2023-08-11T11:52:36.933Z,1025.85
2023-08-11T11:53:36.924Z,1025.85
2023-08-11T11:54:36.930Z,1025.8
2023-08-11T11:55:36.941Z,1025.81
2023-08-11T11:56:38.112Z,1025.8
2023-08-11T11:57:36.938Z,1025.82
2023-08-11T11:58:36.919Z,1025.81
2023-08-11T11:59:36.931Z,1025.79
2023-08-11T12:00:36.926Z,1025.74
2023-08-11T12:01:36.939Z,1025.71
2023-08-11T12:02:36.989Z,1025.7
2023-08-11T12:03:36.973Z,1025.69
2023-08-11T12:04:37.099Z,1025.7
2023-08-11T12:05:36.924Z,1025.69
2023-08-11T12:06:36.944Z,1025.66
2023-08-11T12:07:36.933Z,1025.64
2023-08-11T12:08:36.954Z,1025.64
2023-08-11T12:09:36.929Z,1025.62
2023-08-11T12:10:36.943Z,1025.67
2023-08-11T12:11:36.921Z,1025.64
2023-08-11T12:12:36.941Z,1025.7